MSC Vienna — A8CI9 — position and weather

sailwx.info

Track history (hours):
 
Tides and Currents Weather Stations Pressure Air Temp Water Temp Dewpoint Dewpoint Depression Visibility Wind Speed Wind Dir Waves Ship Positions

MSC Vienna

Last reported at 2015-Mar-01 01:34 UTC. Time now 2015-Mar-01 12:39 UTC.
Position N 37°11' E 024°57'.

Length 260.1 m; beam 32.2 m; draft 12 m.

Type: Ship. MMSI: 636090654.

Date/timePositionNaut miles runAvg speedWind from/ knotsBaromVisibWave heightAir tempDewpointWater temp
2015-Mar-01 01:34N 37°11' E 024°57'2121.2
2015-Mar-01 00:34N 37°29' E 025°12'2221.9
2015-Feb-28 23:34N 37°46' E 025°28'  
2015-Feb-25 10:16N 37°54' E 025°33'1013.8
2015-Feb-25 09:33N 37°46' E 025°28'1515.3
2015-Feb-25 08:33N 37°32' E 025°18'1616.0
2015-Feb-25 07:34N 37°20' E 025°05'1916.9
2015-Feb-25 06:28N 37°04' E 024°53'54119.4
2015-Feb-24 02:33N 36°35' E 013°38'90821.1
2015-Feb-22 07:32N 36°01' W 005°08'  
Track history (hours):
 
Tides and Currents Weather Stations Pressure Air Temp Water Temp Dewpoint Dewpoint Depression Visibility Wind Speed Wind Dir Waves Ship Positions

MSC Vienna

Last reported at 2015-Mar-01 01:34 UTC. Time now 2015-Mar-01 12:39 UTC.
Position N 37°11' E 024°57'.

Length 260.1 m; beam 32.2 m; draft 12 m.

Type: Ship. MMSI: 636090654.

Date/timePositionNaut miles runAvg speedWind from/ knotsBaromVisibWave heightAir tempDewpointWater temp
2015-Mar-01 01:34N 37°11' E 024°57'2121.2
2015-Mar-01 00:34N 37°29' E 025°12'2221.9
2015-Feb-28 23:34N 37°46' E 025°28'  
2015-Feb-25 10:16N 37°54' E 025°33'1013.8
2015-Feb-25 09:33N 37°46' E 025°28'1515.3
2015-Feb-25 08:33N 37°32' E 025°18'1616.0
2015-Feb-25 07:34N 37°20' E 025°05'1916.9
2015-Feb-25 06:28N 37°04' E 024°53'54119.4
2015-Feb-24 02:33N 36°35' E 013°38'90821.1
2015-Feb-22 07:32N 36°01' W 005°08'  

Dump ship's entire track history